| time (UTC) | temp F | wind direction | speed knots | gust knots | rain 1hr in | rain 24hr in | rain mn in | humidity % | barometer mb |
| 20260508070032 | 47 | 82 | 5.2 | 8.7 | 0.00 | 0.07 | 0.00 | 83 | 1009.9 |
| 20260508064545 | 47 | 69 | 5.2 | 10.4 | 0.00 | 0.07 | 0.00 | 84 | 1010.0 |
| 20260508063033 | 46 | 84 | 4.3 | 7.0 | 0.00 | 0.07 | 0.00 | 85 | 1009.9 |
| 20260508061532 | 46 | 78 | 3.5 | 7.8 | 0.00 | 0.07 | 0.00 | 85 | 1009.6 |
| 20260508060031 | 46 | 98 | 4.3 | 7.0 | 0.00 | 0.07 | 0.00 | 85 | 1009.7 |
| 20260508054529 | 46 | 90 | 2.6 | 7.0 | 0.00 | 0.08 | 0.00 | 86 | 1009.8 |
| 20260508053028 | 45 | 94 | 3.5 | 7.8 | 0.00 | 0.08 | 0.00 | 86 | 1009.6 |
| 20260508051530 | 45 | 84 | 4.3 | 7.0 | 0.00 | 0.08 | 0.00 | 86 | 1009.4 |
| 20260508050030 | 45 | 104 | 3.5 | 6.1 | 0.00 | 0.08 | 0.00 | 86 | 1009.4 |
| 20260508044530 | 45 | 105 | 2.6 | 6.1 | 0.00 | 0.08 | 0.00 | 85 | 1009.8 |
| 20260508043033 | 46 | 119 | 3.5 | 7.0 | 0.00 | 0.08 | 0.00 | 85 | 1009.6 |
| 20260508041529 | 46 | 81 | 2.6 | 6.1 | 0.00 | 0.08 | 0.00 | 85 | 1009.5 |
| 20260508040031 | 45 | 87 | 3.5 | 7.8 | 0.00 | 0.08 | 0.00 | 85 | 1009.5 |
| 20260508034530 | 46 | 108 | 5.2 | 7.8 | 0.00 | 0.08 | 0.00 | 85 | 1009.4 |
| 20260508033030 | 46 | 92 | 3.5 | 6.1 | 0.00 | 0.08 | 0.00 | 85 | 1009.6 |
| 20260508031530 | 46 | 68 | 2.6 | 6.1 | 0.00 | 0.08 | 0.00 | 85 | 1009.8 |
| 20260508030029 | 46 | 91 | 3.5 | 5.2 | 0.00 | 0.08 | 0.00 | 85 | 1010.1 |
| 20260508024531 | 46 | 90 | 2.6 | 6.1 | 0.00 | 0.08 | 0.00 | 84 | 1010.0 |
| 20260508023035 | 47 | 98 | 2.6 | 5.2 | 0.00 | 0.08 | 0.00 | 85 | 1010.2 |
| 20260508021531 | 47 | 96 | 3.5 | 6.1 | 0.00 | 0.08 | 0.00 | 85 | 1010.2 |
| 20260508020031 | 47 | 79 | 3.5 | 6.1 | 0.00 | 0.08 | 0.00 | 85 | 1010.3 |
| 20260508014534 | 47 | 94 | 2.6 | 6.1 | 0.00 | 0.08 | 0.00 | 84 | 1010.6 |
| 20260508013030 | 47 | 84 | 2.6 | 5.2 | 0.00 | 0.08 | 0.00 | 84 | 1010.7 |
| 20260508011538 | 47 | 92 | 1.7 | 5.2 | 0.00 | 0.08 | 0.00 | 84 | 1011.1 |
| 20260508010034 | 47 | 84 | 2.6 | 5.2 | 0.00 | 0.08 | 0.00 | 84 | 1011.2 |
| 20260508004545 | 47 | 103 | 1.7 | 3.5 | 0.00 | 0.08 | 0.00 | 84 | 1011.6 |
| 20260508003036 | 47 | 92 | 0.0 | 4.3 | 0.00 | 0.08 | 0.00 | 83 | 1011.6 |
| 20260508001533 | 47 | 78 | 0.9 | 2.6 | 0.00 | 0.08 | 0.00 | 83 | 1011.6 |
| 20260508000031 | 47 | 82 | 1.7 | 3.5 | 0.00 | 0.08 | 0.00 | 83 | 1011.6 |
| 20260507234532 | 47 | 84 | 2.6 | 5.2 | 0.00 | 0.08 | 0.00 | 83 | 1011.4 |
| 20260507233032 | 47 | 101 | 3.5 | 6.1 | 0.00 | 0.08 | 0.00 | 83 | 1011.3 |
| 20260507231530 | 47 | 74 | 2.6 | 5.2 | 0.00 | 0.08 | 0.00 | 82 | 1011.4 |
| 20260507230031 | 47 | 107 | 2.6 | 6.1 | 0.00 | 0.08 | 0.00 | 82 | 1011.6 |
| 20260507224530 | 48 | 95 | 2.6 | 3.5 | 0.00 | 0.08 | 0.00 | 82 | 1011.6 |
| 20260507223030 | 48 | 92 | 1.7 | 3.5 | 0.00 | 0.08 | 0.00 | 81 | 1011.7 |
| 20260507221534 | 48 | 90 | 1.7 | 3.5 | 0.00 | 0.08 | 0.00 | 81 | 1011.8 |
| 20260507220032 | 48 | 86 | 2.6 | 5.2 | 0.00 | 0.08 | 0.00 | 80 | 1011.6 |
| 20260507214530 | 49 | 86 | 2.6 | 6.1 | 0.00 | 0.08 | 0.08 | 79 | 1011.6 |
| 20260507213033 | 49 | 65 | 3.5 | 7.0 | 0.00 | 0.08 | 0.08 | 77 | 1011.5 |
| 20260507211528 | 49 | 88 | 4.3 | 7.8 | 0.00 | 0.08 | 0.08 | 77 | 1011.5 |
| 20260507210032 | 49 | 82 | 2.6 | 8.7 | 0.00 | 0.08 | 0.08 | 78 | 1011.2 |
| 20260507204530 | 49 | 80 | 4.3 | 7.8 | 0.00 | 0.08 | 0.08 | 77 | 1011.1 |
| 20260507203030 | 49 | 109 | 4.3 | 7.0 | 0.00 | 0.08 | 0.08 | 77 | 1010.9 |
| 20260507201529 | 49 | 81 | 3.5 | 6.1 | 0.00 | 0.08 | 0.08 | 77 | 1010.8 |
| 20260507200036 | 50 | 84 | 4.3 | 7.0 | 0.00 | 0.08 | 0.08 | 76 | 1010.6 |
| 20260507194532 | 51 | 101 | 3.5 | 7.0 | 0.00 | 0.08 | 0.08 | 76 | 1010.4 |
| 20260507193032 | 51 | 94 | 3.5 | 7.8 | 0.00 | 0.08 | 0.08 | 75 | 1010.3 |
| 20260507191532 | 52 | 113 | 5.2 | 9.6 | 0.00 | 0.08 | 0.08 | 74 | 1010.2 |
| 20260507190037 | 53 | 98 | 5.2 | 9.6 | 0.00 | 0.08 | 0.08 | 74 | 1010.3 |
| 20260507184537 | 53 | 108 | 7.0 | 9.6 | 0.00 | 0.08 | 0.08 | 73 | 1010.0 |
| 20260507183037 | 54 | 107 | 5.2 | 9.6 | 0.02 | 0.08 | 0.08 | 71 | 1009.7 |
| 20260507181532 | 55 | 0 | 0.0 | 3.5 | 0.03 | 0.08 | 0.08 | 71 | 1009.4 |
| 20260507180032 | 54 | 348 | 2.6 | 5.2 | 0.05 | 0.08 | 0.08 | 72 | 1009.3 |
| 20260507174536 | 51 | 276 | 2.6 | 9.6 | 0.05 | 0.07 | 0.07 | 82 | 1009.5 |
| 20260507173033 | 51 | 24 | 3.5 | 7.0 | 0.04 | 0.06 | 0.06 | 81 | 1009.7 |
| 20260507171534 | 51 | 329 | 1.7 | 8.7 | 0.03 | 0.04 | 0.04 | 77 | 1009.9 |
| 20260507170035 | 52 | 0 | 0.9 | 13.0 | 0.01 | 0.03 | 0.03 | 68 | 1010.1 |
| 20260507164530 | 53 | 257 | 2.6 | 9.6 | 0.00 | 0.02 | 0.02 | 71 | 1009.8 |
| 20260507163033 | 56 | 254 | 6.1 | 12.2 | 0.00 | 0.01 | 0.01 | 61 | 1009.6 |
| 20260507161531 | 58 | 261 | 6.1 | 11.3 | 0.00 | 0.01 | 0.01 | 51 | 1009.3 |
| 20260507160034 | 60 | 298 | 3.5 | 12.2 | 0.00 | 0.01 | 0.01 | 51 | 1009.1 |
| 20260507154533 | 62 | 205 | 2.6 | 7.0 | 0.00 | 0.01 | 0.01 | 42 | 1009.1 |
| 20260507153030 | 64 | 214 | 2.6 | 7.8 | 0.00 | 0.01 | 0.01 | 38 | 1009.0 |
| 20260507151530 | 65 | 184 | 2.6 | 10.4 | 0.00 | 0.01 | 0.01 | 40 | 1009.1 |
| 20260507150032 | 63 | 246 | 3.5 | 8.7 | 0.00 | 0.01 | 0.01 | 41 | 1009.1 |
| 20260507144529 | 65 | 165 | 3.5 | 9.6 | 0.00 | 0.01 | 0.01 | 42 | 1009.2 |
| 20260507143031 | 63 | 202 | 3.5 | 9.6 | 0.00 | 0.01 | 0.01 | 44 | 1009.3 |
| 20260507141530 | 64 | 148 | 1.7 | 8.7 | 0.00 | 0.01 | 0.01 | 45 | 1009.4 |
| 20260507140028 | 63 | 256 | 2.6 | 9.6 | 0.00 | 0.01 | 0.01 | 43 | 1009.5 |
| 20260507134530 | 62 | 201 | 1.7 | 7.0 | 0.00 | 0.01 | 0.01 | 49 | 1009.6 |
| 20260507133030 | 61 | 179 | 1.7 | 7.0 | 0.00 | 0.01 | 0.01 | 46 | 1009.9 |
| 20260507131535 | 61 | 182 | 0.9 | 7.0 | 0.00 | 0.01 | 0.01 | 50 | 1010.0 |
| 20260507130030 | 63 | 196 | 1.7 | 6.1 | 0.00 | 0.01 | 0.01 | 50 | 1010.2 |
| 20260507124536 | 62 | 163 | 0.9 | 7.0 | 0.00 | 0.01 | 0.01 | 50 | 1010.3 |
| 20260507123033 | 62 | 196 | 1.7 | 6.1 | 0.00 | 0.01 | 0.01 | 51 | 1010.6 |
| 20260507121540 | 61 | 175 | 2.6 | 10.4 | 0.00 | 0.01 | 0.01 | 48 | 1010.6 |
| 20260507120030 | 62 | 254 | 3.5 | 11.3 | 0.00 | 0.01 | 0.01 | 52 | 1010.8 |
| 20260507114530 | 61 | 134 | 3.5 | 10.4 | 0.00 | 0.01 | 0.01 | 52 | 1011.0 |
| 20260507113035 | 61 | 154 | 3.5 | 9.6 | 0.00 | 0.01 | 0.01 | 51 | 1011.2 |
| 20260507111529 | 61 | 123 | 1.7 | 8.7 | 0.00 | 0.01 | 0.01 | 54 | 1011.1 |
| 20260507110031 | 60 | 78 | 3.5 | 7.8 | 0.00 | 0.01 | 0.01 | 56 | 1011.1 |
| 20260507104531 | 60 | 140 | 3.5 | 7.8 | 0.00 | 0.01 | 0.01 | 57 | 1011.2 |
| 20260507103032 | 60 | 125 | 2.6 | 7.0 | 0.00 | 0.01 | 0.01 | 60 | 1011.4 |
| 20260507101537 | 59 | 126 | 4.3 | 9.6 | 0.00 | 0.01 | 0.01 | 59 | 1011.4 |
| 20260507100034 | 58 | 105 | 3.5 | 7.0 | 0.00 | 0.01 | 0.01 | 60 | 1011.4 |
| 20260507094530 | 58 | 138 | 3.5 | 7.8 | 0.00 | 0.01 | 0.01 | 59 | 1011.5 |
| 20260507093037 | 57 | 121 | 3.5 | 7.0 | 0.00 | 0.01 | 0.01 | 63 | 1011.6 |
| 20260507091532 | 57 | 152 | 2.6 | 8.7 | 0.00 | 0.01 | 0.01 | 64 | 1011.6 |
| 20260507090032 | 56 | 104 | 2.6 | 8.7 | 0.00 | 0.01 | 0.01 | 66 | 1011.5 |
| 20260507084532 | 55 | 111 | 6.1 | 9.6 | 0.00 | 0.01 | 0.01 | 68 | 1011.5 |
| 20260507083038 | 54 | 114 | 5.2 | 9.6 | 0.00 | 0.01 | 0.01 | 69 | 1011.5 |
| 20260507081531 | 53 | 100 | 4.3 | 7.8 | 0.00 | 0.01 | 0.01 | 70 | 1011.5 |
| 20260507080030 | 52 | 58 | 5.2 | 8.7 | 0.00 | 0.01 | 0.01 | 71 | 1011.5 |
| 20260507074532 | 52 | 80 | 4.3 | 7.8 | 0.00 | 0.01 | 0.01 | 71 | 1011.4 |
| 20260507073030 | 51 | 108 | 3.5 | 7.8 | 0.00 | 0.01 | 0.01 | 73 | 1011.4 |
| 20260507071551 | 49 | 107 | 3.5 | 7.8 | 0.00 | 0.01 | 0.01 | 73 | 1011.5 |